createdAt,value
2018-08-03T00:00:30.133Z,1002.43
2018-08-03T00:01:36.807Z,1002.41
2018-08-03T00:02:43.475Z,1002.43
2018-08-03T00:03:50.152Z,1002.45
2018-08-03T00:04:56.817Z,1002.38
2018-08-03T00:06:03.478Z,1002.44
2018-08-03T00:07:10.152Z,1002.47
2018-08-03T00:08:16.831Z,1002.43
2018-08-03T00:09:23.505Z,1002.42
2018-08-03T00:10:30.278Z,1002.41
2018-08-03T00:11:36.836Z,1002.40
2018-08-03T00:12:43.505Z,1002.44
2018-08-03T00:13:50.280Z,1002.38
2018-08-03T00:14:57.342Z,1002.39
2018-08-03T00:16:03.497Z,1002.39
2018-08-03T00:17:10.276Z,1002.38
2018-08-03T00:18:16.848Z,1002.38
2018-08-03T00:19:24.755Z,1002.37
2018-08-03T00:20:30.275Z,1002.38
2018-08-03T00:21:37.361Z,1002.38
2018-08-03T00:22:43.488Z,1002.34
2018-08-03T00:23:51.160Z,1002.33
2018-08-03T00:24:56.827Z,1002.37
2018-08-03T00:26:03.508Z,1002.36
2018-08-03T00:27:10.153Z,1002.37
2018-08-03T00:28:16.813Z,1002.37
2018-08-03T00:29:23.481Z,1002.35
2018-08-03T00:30:30.133Z,1002.33
2018-08-03T00:31:36.877Z,1002.32
2018-08-03T00:32:43.455Z,1002.35
2018-08-03T00:33:50.115Z,1002.37
2018-08-03T00:34:56.769Z,1002.37
2018-08-03T00:36:03.437Z,1002.38
2018-08-03T00:37:10.088Z,1002.36
2018-08-03T00:38:16.756Z,1002.41
2018-08-03T00:39:23.406Z,1002.38
2018-08-03T00:40:30.061Z,1002.36
2018-08-03T00:41:36.710Z,1002.31
2018-08-03T00:42:43.371Z,1002.33
2018-08-03T00:43:50.030Z,1002.36
2018-08-03T00:44:56.878Z,1002.39
2018-08-03T00:46:03.341Z,1002.38
2018-08-03T00:47:10.000Z,1002.40
2018-08-03T00:48:16.647Z,1002.40
2018-08-03T00:49:23.312Z,1002.38
2018-08-03T00:50:29.975Z,1002.38
2018-08-03T00:51:36.607Z,1002.38
2018-08-03T00:52:43.256Z,1002.40
2018-08-03T00:53:49.916Z,1002.35
2018-08-03T00:54:56.550Z,1002.40
2018-08-03T00:56:03.208Z,1002.40
2018-08-03T00:57:09.855Z,1002.41
2018-08-03T00:58:16.504Z,1002.41
2018-08-03T00:59:23.162Z,1002.40
2018-08-03T01:00:29.812Z,1002.44
2018-08-03T01:01:36.439Z,1002.41
2018-08-03T01:02:43.083Z,1002.40
2018-08-03T01:03:49.743Z,1002.40
2018-08-03T01:04:56.385Z,1002.40
2018-08-03T01:06:03.043Z,1002.39
2018-08-03T01:07:09.674Z,1002.42
2018-08-03T01:08:16.314Z,1002.38
2018-08-03T01:09:22.962Z,1002.45
2018-08-03T01:10:29.616Z,1002.40
2018-08-03T01:11:36.249Z,1002.44
2018-08-03T01:12:42.903Z,1002.46
2018-08-03T01:13:49.543Z,1002.45
2018-08-03T01:14:56.273Z,1002.47
2018-08-03T01:16:02.823Z,1002.48
2018-08-03T01:17:09.463Z,1002.48
2018-08-03T01:18:16.111Z,1002.44
2018-08-03T01:19:22.754Z,1002.44
2018-08-03T01:20:29.383Z,1002.49
2018-08-03T01:21:36.025Z,1002.43
2018-08-03T01:22:42.663Z,1002.46
2018-08-03T01:23:49.306Z,1002.46
2018-08-03T01:24:55.932Z,1002.46
2018-08-03T01:26:02.580Z,1002.45
2018-08-03T01:27:09.215Z,1002.45
2018-08-03T01:28:15.857Z,1002.46
2018-08-03T01:29:22.499Z,1002.44
2018-08-03T01:30:29.145Z,1002.48
2018-08-03T01:31:35.763Z,1002.45
2018-08-03T01:32:42.397Z,1002.47
2018-08-03T01:33:49.037Z,1002.46
2018-08-03T01:34:55.675Z,1002.46
2018-08-03T01:36:02.785Z,1002.43
2018-08-03T01:37:08.925Z,1002.41
2018-08-03T01:38:15.563Z,1002.40
2018-08-03T01:39:22.316Z,1002.41
2018-08-03T01:40:29.323Z,1002.40
2018-08-03T01:41:35.491Z,1002.40
2018-08-03T01:42:42.108Z,1002.39
2018-08-03T01:43:48.749Z,1002.41
2018-08-03T01:44:55.373Z,1002.43
2018-08-03T01:46:02.008Z,1002.40
2018-08-03T01:47:08.641Z,1002.42
2018-08-03T01:48:15.264Z,1002.46
2018-08-03T01:49:21.908Z,1002.43
2018-08-03T01:50:28.535Z,1002.49
2018-08-03T01:51:35.169Z,1002.49
2018-08-03T01:52:41.796Z,1002.50
2018-08-03T01:53:48.456Z,1002.49
2018-08-03T01:54:55.083Z,1002.47
2018-08-03T01:56:01.704Z,1002.48
2018-08-03T01:57:08.329Z,1002.46
2018-08-03T01:58:14.968Z,1002.46
2018-08-03T01:59:21.594Z,1002.48
2018-08-03T02:00:28.228Z,1002.45
2018-08-03T02:01:34.856Z,1002.47
2018-08-03T02:02:41.469Z,1002.47
2018-08-03T02:03:48.117Z,1002.47
2018-08-03T02:04:54.739Z,1002.47
2018-08-03T02:06:01.358Z,1002.43
2018-08-03T02:07:07.988Z,1002.45
2018-08-03T02:08:14.810Z,1002.45
2018-08-03T02:09:21.240Z,1002.47
2018-08-03T02:10:27.868Z,1002.45
2018-08-03T02:11:34.493Z,1002.47
2018-08-03T02:12:41.138Z,1002.45
2018-08-03T02:13:47.742Z,1002.47
2018-08-03T02:14:54.380Z,1002.48
2018-08-03T02:16:01.007Z,1002.49
2018-08-03T02:17:07.622Z,1002.47
2018-08-03T02:18:14.230Z,1002.51
2018-08-03T02:19:20.909Z,1002.47
2018-08-03T02:20:27.489Z,1002.48
2018-08-03T02:21:34.136Z,1002.46
2018-08-03T02:22:40.737Z,1002.43
2018-08-03T02:23:47.362Z,1002.43
2018-08-03T02:24:53.982Z,1002.45
2018-08-03T02:26:00.601Z,1002.46
2018-08-03T02:27:07.229Z,1002.49
2018-08-03T02:28:13.848Z,1002.45
2018-08-03T02:29:20.474Z,1002.52
2018-08-03T02:30:27.096Z,1002.49
2018-08-03T02:31:33.719Z,1002.54
2018-08-03T02:32:40.340Z,1002.53
2018-08-03T02:33:46.957Z,1002.51
2018-08-03T02:34:53.586Z,1002.52
2018-08-03T02:36:00.223Z,1002.45
2018-08-03T02:37:06.841Z,1002.44
2018-08-03T02:38:13.517Z,1002.44
2018-08-03T02:39:20.078Z,1002.46
2018-08-03T02:40:26.695Z,1002.46
2018-08-03T02:41:34.316Z,1002.46
2018-08-03T02:42:39.931Z,1002.46
2018-08-03T02:43:46.565Z,1002.45
2018-08-03T02:44:53.285Z,1002.44
2018-08-03T02:45:59.783Z,1002.49
2018-08-03T02:47:06.407Z,1002.44
2018-08-03T02:48:13.015Z,1002.46
2018-08-03T02:49:19.643Z,1002.45
2018-08-03T02:50:26.256Z,1002.44
2018-08-03T02:51:32.874Z,1002.42
2018-08-03T02:52:39.478Z,1002.43
2018-08-03T02:53:46.104Z,1002.39
2018-08-03T02:54:52.720Z,1002.46
2018-08-03T02:55:59.349Z,1002.46
2018-08-03T02:57:06.413Z,1002.49
2018-08-03T02:58:12.580Z,1002.48
2018-08-03T02:59:19.285Z,1002.49
2018-08-03T03:00:25.802Z,1002.52
2018-08-03T03:01:32.412Z,1002.55
2018-08-03T03:02:39.021Z,1002.52
2018-08-03T03:03:45.641Z,1002.51
2018-08-03T03:04:52.256Z,1002.56
2018-08-03T03:05:58.857Z,1002.52
2018-08-03T03:07:05.464Z,1002.54
2018-08-03T03:08:12.087Z,1002.60
2018-08-03T03:09:18.685Z,1002.57
2018-08-03T03:10:25.308Z,1002.59
2018-08-03T03:11:31.919Z,1002.57
2018-08-03T03:12:38.582Z,1002.60
2018-08-03T03:13:45.130Z,1002.58
2018-08-03T03:14:51.749Z,1002.58
2018-08-03T03:15:58.353Z,1002.57
2018-08-03T03:17:04.952Z,1002.60
2018-08-03T03:18:11.557Z,1002.61
2018-08-03T03:19:18.228Z,1002.61
2018-08-03T03:20:24.790Z,1002.58
2018-08-03T03:21:31.401Z,1002.58
2018-08-03T03:22:38.012Z,1002.55
2018-08-03T03:23:44.617Z,1002.58
2018-08-03T03:24:51.231Z,1002.58
2018-08-03T03:25:57.841Z,1002.58
2018-08-03T03:27:04.437Z,1002.56
2018-08-03T03:28:11.043Z,1002.61
2018-08-03T03:29:17.667Z,1002.61
2018-08-03T03:30:24.279Z,1002.60
2018-08-03T03:31:30.880Z,1002.63
2018-08-03T03:32:37.517Z,1002.64
2018-08-03T03:33:44.099Z,1002.58
2018-08-03T03:34:50.721Z,1002.59
2018-08-03T03:35:57.322Z,1002.62
2018-08-03T03:37:03.929Z,1002.65
2018-08-03T03:38:10.538Z,1002.68
2018-08-03T03:39:17.153Z,1002.69
2018-08-03T03:40:23.760Z,1002.68
2018-08-03T03:41:30.377Z,1002.65
2018-08-03T03:42:36.975Z,1002.66
2018-08-03T03:43:44.579Z,1002.66
2018-08-03T03:44:50.660Z,1002.64
2018-08-03T03:45:56.805Z,1002.66
2018-08-03T03:47:03.895Z,1002.62
2018-08-03T03:48:10.021Z,1002.62
2018-08-03T03:49:16.629Z,1002.62
2018-08-03T03:50:23.233Z,1002.64
2018-08-03T03:51:29.844Z,1002.66
2018-08-03T03:52:36.452Z,1002.61
2018-08-03T03:53:43.048Z,1002.63
2018-08-03T03:54:49.650Z,1002.66
2018-08-03T03:55:57.261Z,1002.66
2018-08-03T03:57:02.874Z,1002.63
2018-08-03T03:58:09.492Z,1002.65
2018-08-03T03:59:16.093Z,1002.65
2018-08-03T04:00:22.696Z,1002.66
2018-08-03T04:01:29.291Z,1002.66
2018-08-03T04:02:35.906Z,1002.60
2018-08-03T04:03:42.561Z,1002.63
2018-08-03T04:04:49.134Z,1002.63
2018-08-03T04:05:55.772Z,1002.61
2018-08-03T04:07:02.335Z,1002.62
2018-08-03T04:08:08.961Z,1002.62
2018-08-03T04:09:15.560Z,1002.63
2018-08-03T04:10:22.171Z,1002.64
2018-08-03T04:11:28.781Z,1002.65
2018-08-03T04:12:35.406Z,1002.64
2018-08-03T04:13:41.997Z,1002.66
2018-08-03T04:14:49.611Z,1002.65
2018-08-03T04:15:55.241Z,1002.66
2018-08-03T04:17:02.833Z,1002.60
2018-08-03T04:18:08.659Z,1002.62
2018-08-03T04:19:15.064Z,1002.63
2018-08-03T04:20:21.709Z,1002.61
2018-08-03T04:21:28.302Z,1002.65
2018-08-03T04:22:34.921Z,1002.60
2018-08-03T04:23:41.547Z,1002.63
2018-08-03T04:24:48.153Z,1002.65
2018-08-03T04:25:54.770Z,1002.63
2018-08-03T04:27:01.380Z,1002.61
2018-08-03T04:28:07.994Z,1002.64
2018-08-03T04:29:14.619Z,1002.68
2018-08-03T04:30:21.235Z,1002.68
2018-08-03T04:31:27.841Z,1002.66
2018-08-03T04:32:34.468Z,1002.67
2018-08-03T04:33:41.087Z,1002.72
2018-08-03T04:34:47.712Z,1002.71
2018-08-03T04:35:54.322Z,1002.68
2018-08-03T04:37:00.942Z,1002.73
2018-08-03T04:38:08.014Z,1002.72
2018-08-03T04:39:14.179Z,1002.77
2018-08-03T04:40:20.817Z,1002.73
2018-08-03T04:41:27.425Z,1002.75
2018-08-03T04:42:34.588Z,1002.76
2018-08-03T04:43:40.658Z,1002.74
2018-08-03T04:44:47.276Z,1002.76
2018-08-03T04:45:53.907Z,1002.79
2018-08-03T04:47:00.514Z,1002.82
2018-08-03T04:48:07.149Z,1002.79
2018-08-03T04:49:13.773Z,1002.84
2018-08-03T04:50:20.384Z,1002.81
2018-08-03T04:51:27.008Z,1002.82
2018-08-03T04:52:33.644Z,1002.86
2018-08-03T04:53:40.258Z,1002.83
2018-08-03T04:54:46.900Z,1002.86
2018-08-03T04:55:53.518Z,1002.89
2018-08-03T04:57:00.149Z,1002.85
2018-08-03T04:58:06.759Z,1002.86
2018-08-03T04:59:13.379Z,1002.93
2018-08-03T05:00:20.022Z,1002.91
2018-08-03T05:01:26.669Z,1002.92
2018-08-03T05:02:33.267Z,1002.90
2018-08-03T05:03:40.364Z,1002.94
2018-08-03T05:04:46.572Z,1002.95
2018-08-03T05:05:53.174Z,1002.88
2018-08-03T05:06:59.795Z,1002.87
2018-08-03T05:08:06.432Z,1002.86
2018-08-03T05:09:13.074Z,1002.88
2018-08-03T05:10:19.706Z,1002.82
2018-08-03T05:11:26.353Z,1002.86
2018-08-03T05:12:32.993Z,1002.86
2018-08-03T05:13:39.781Z,1002.84
2018-08-03T05:14:46.266Z,1002.81
2018-08-03T05:15:52.935Z,1002.82
2018-08-03T05:16:59.549Z,1002.81
2018-08-03T05:18:06.194Z,1002.85
2018-08-03T05:19:12.822Z,1002.83
2018-08-03T05:20:19.467Z,1002.83
2018-08-03T05:21:26.110Z,1002.81
2018-08-03T05:22:32.750Z,1002.81
2018-08-03T05:23:39.392Z,1002.81
2018-08-03T05:24:46.053Z,1002.85
2018-08-03T05:25:52.704Z,1002.85
2018-08-03T05:26:59.354Z,1002.88
2018-08-03T05:28:05.978Z,1002.86
2018-08-03T05:29:12.630Z,1002.89
2018-08-03T05:30:19.299Z,1002.91
2018-08-03T05:31:25.933Z,1002.90
2018-08-03T05:32:32.579Z,1002.94
2018-08-03T05:33:39.235Z,1002.89
2018-08-03T05:34:45.887Z,1002.89
2018-08-03T05:35:52.593Z,1002.89
2018-08-03T05:36:59.282Z,1002.87
2018-08-03T05:38:05.844Z,1002.89
2018-08-03T05:39:12.505Z,1002.86
2018-08-03T05:40:19.150Z,1002.87
2018-08-03T05:41:25.811Z,1002.89
2018-08-03T05:42:32.540Z,1002.86
2018-08-03T05:43:39.134Z,1002.90
2018-08-03T05:44:45.812Z,1002.90
2018-08-03T05:45:52.457Z,1002.87
2018-08-03T05:46:59.605Z,1002.83
2018-08-03T05:48:05.776Z,1002.83
2018-08-03T05:49:12.460Z,1002.78
2018-08-03T05:50:19.121Z,1002.83
2018-08-03T05:51:26.233Z,1002.88
2018-08-03T05:52:32.516Z,1002.91
2018-08-03T05:53:39.105Z,1002.87
2018-08-03T05:54:45.784Z,1002.92
2018-08-03T05:55:52.444Z,1002.92
2018-08-03T05:56:59.108Z,1002.94
2018-08-03T05:58:05.795Z,1002.95
2018-08-03T05:59:12.445Z,1002.91
2018-08-03T06:00:19.122Z,1002.94
2018-08-03T06:01:25.799Z,1002.95
2018-08-03T06:02:32.454Z,1002.92
2018-08-03T06:03:39.132Z,1002.94
2018-08-03T06:04:45.825Z,1002.96
2018-08-03T06:05:52.491Z,1002.97
2018-08-03T06:06:59.266Z,1002.93
2018-08-03T06:08:05.863Z,1002.93
2018-08-03T06:09:12.528Z,1002.90
2018-08-03T06:10:19.200Z,1002.92
2018-08-03T06:11:25.893Z,1002.90
2018-08-03T06:12:32.570Z,1002.95
2018-08-03T06:13:39.250Z,1002.88
2018-08-03T06:14:45.936Z,1002.87
2018-08-03T06:15:52.628Z,1002.90
2018-08-03T06:16:59.310Z,1002.86
2018-08-03T06:18:06.001Z,1002.88
2018-08-03T06:19:12.668Z,1002.87
2018-08-03T06:20:19.370Z,1002.88
2018-08-03T06:21:27.051Z,1002.85
2018-08-03T06:22:32.744Z,1002.85
2018-08-03T06:23:39.448Z,1002.90
2018-08-03T06:24:46.132Z,1002.91
2018-08-03T06:25:52.848Z,1002.90
2018-08-03T06:26:59.539Z,1002.87
2018-08-03T06:28:06.227Z,1002.94
2018-08-03T06:29:13.389Z,1002.98
2018-08-03T06:30:19.624Z,1002.99
2018-08-03T06:31:26.338Z,1002.95
2018-08-03T06:32:33.077Z,1003.00
2018-08-03T06:33:39.745Z,1002.95
2018-08-03T06:34:46.424Z,1002.91
2018-08-03T06:35:53.186Z,1002.92
2018-08-03T06:36:59.845Z,1002.91
2018-08-03T06:38:06.558Z,1002.97
2018-08-03T06:39:13.305Z,1002.97
2018-08-03T06:40:19.966Z,1002.95
2018-08-03T06:41:26.685Z,1002.97
2018-08-03T06:42:33.438Z,1002.96
2018-08-03T06:43:40.110Z,1002.94
2018-08-03T06:44:46.842Z,1002.99
2018-08-03T06:45:53.559Z,1002.98
2018-08-03T06:47:00.264Z,1002.97
2018-08-03T06:48:06.981Z,1002.99
2018-08-03T06:49:13.717Z,1002.97
2018-08-03T06:50:20.421Z,1002.96
2018-08-03T06:51:27.272Z,1002.94
2018-08-03T06:52:33.877Z,1002.98
2018-08-03T06:53:40.624Z,1002.98
2018-08-03T06:54:47.332Z,1002.96
2018-08-03T06:55:54.069Z,1002.93
2018-08-03T06:57:00.816Z,1002.95
2018-08-03T06:58:07.554Z,1002.88
2018-08-03T06:59:14.312Z,1002.91
2018-08-03T07:00:21.051Z,1002.92
2018-08-03T07:01:28.775Z,1002.95
2018-08-03T07:02:34.521Z,1002.90
2018-08-03T07:03:41.280Z,1002.93
2018-08-03T07:04:48.012Z,1002.94
2018-08-03T07:05:54.760Z,1002.92
2018-08-03T07:07:01.520Z,1002.93
2018-08-03T07:08:08.268Z,1002.91
2018-08-03T07:09:16.033Z,1002.88
2018-08-03T07:10:21.780Z,1002.86
2018-08-03T07:11:28.550Z,1002.83
2018-08-03T07:12:35.312Z,1002.88
2018-08-03T07:13:42.077Z,1002.84
2018-08-03T07:14:48.856Z,1002.87
2018-08-03T07:15:55.624Z,1002.82
2018-08-03T07:17:02.444Z,1002.84
2018-08-03T07:18:09.279Z,1002.80
2018-08-03T07:19:15.954Z,1002.82
2018-08-03T07:20:22.888Z,1002.77
2018-08-03T07:21:29.534Z,1002.84
2018-08-03T07:22:36.313Z,1002.81
2018-08-03T07:23:43.111Z,1002.81
2018-08-03T07:24:49.922Z,1002.79
2018-08-03T07:25:57.747Z,1002.83
2018-08-03T07:27:03.522Z,1002.83
2018-08-03T07:28:10.332Z,1002.77
2018-08-03T07:29:17.445Z,1002.81
2018-08-03T07:30:23.935Z,1002.78
2018-08-03T07:31:30.771Z,1002.73
2018-08-03T07:32:37.554Z,1002.73
2018-08-03T07:33:44.360Z,1002.71
2018-08-03T07:34:51.183Z,1002.73
2018-08-03T07:35:57.990Z,1002.70
2018-08-03T07:37:04.819Z,1002.72
2018-08-03T07:38:11.630Z,1002.74
2018-08-03T07:39:18.451Z,1002.72
2018-08-03T07:40:25.263Z,1002.74
2018-08-03T07:41:32.110Z,1002.67
2018-08-03T07:42:38.919Z,1002.68
2018-08-03T07:43:45.759Z,1002.72
2018-08-03T07:44:52.606Z,1002.71
2018-08-03T07:45:59.401Z,1002.74
2018-08-03T07:47:06.244Z,1002.72
2018-08-03T07:48:13.083Z,1002.69
2018-08-03T07:49:19.907Z,1002.71
2018-08-03T07:50:26.756Z,1002.76
2018-08-03T07:51:33.847Z,1002.73
2018-08-03T07:52:40.442Z,1002.80
2018-08-03T07:53:47.279Z,1002.73
2018-08-03T07:54:55.122Z,1002.74
2018-08-03T07:56:00.967Z,1002.68
2018-08-03T07:57:07.829Z,1002.69
2018-08-03T07:58:14.677Z,1002.69
2018-08-03T07:59:21.531Z,1002.67
2018-08-03T08:00:28.390Z,1002.68
2018-08-03T08:01:35.256Z,1002.71
2018-08-03T08:02:42.113Z,1002.64
2018-08-03T08:03:48.991Z,1002.61
2018-08-03T08:04:55.855Z,1002.60
2018-08-03T08:06:02.727Z,1002.62
2018-08-03T08:07:09.621Z,1002.57
2018-08-03T08:08:16.483Z,1002.62
2018-08-03T08:09:23.849Z,1002.61
2018-08-03T08:10:30.230Z,1002.58
2018-08-03T08:11:37.112Z,1002.60
2018-08-03T08:12:44.005Z,1002.59
2018-08-03T08:13:50.895Z,1002.55
2018-08-03T08:14:57.780Z,1002.54
2018-08-03T08:16:04.669Z,1002.54
2018-08-03T08:17:11.563Z,1002.54
2018-08-03T08:18:18.465Z,1002.52
2018-08-03T08:19:26.345Z,1002.50
2018-08-03T08:20:32.246Z,1002.45
2018-08-03T08:21:39.144Z,1002.47
2018-08-03T08:22:46.059Z,1002.49
2018-08-03T08:23:52.943Z,1002.48
2018-08-03T08:24:59.893Z,1002.48
2018-08-03T08:26:06.781Z,1002.48
2018-08-03T08:27:13.679Z,1002.45
2018-08-03T08:28:20.587Z,1002.42
2018-08-03T08:29:27.490Z,1002.45
2018-08-03T08:30:34.423Z,1002.48
2018-08-03T08:31:41.378Z,1002.44
2018-08-03T08:32:48.240Z,1002.49
2018-08-03T08:33:55.164Z,1002.46
2018-08-03T08:35:02.095Z,1002.39
2018-08-03T08:36:09.010Z,1002.39
2018-08-03T08:37:16.833Z,1002.39
2018-08-03T08:38:22.857Z,1002.39
2018-08-03T08:39:29.778Z,1002.37
2018-08-03T08:40:36.694Z,1002.35
2018-08-03T08:41:43.622Z,1002.35
2018-08-03T08:42:50.545Z,1002.32
2018-08-03T08:43:57.587Z,1002.27
2018-08-03T08:45:04.393Z,1002.25
2018-08-03T08:46:11.332Z,1002.25
2018-08-03T08:47:18.266Z,1002.26
2018-08-03T08:48:25.189Z,1002.24
2018-08-03T08:49:32.115Z,1002.27
2018-08-03T08:50:39.038Z,1002.24
2018-08-03T08:51:45.992Z,1002.26
2018-08-03T08:52:52.917Z,1002.28
2018-08-03T08:53:59.871Z,1002.24
2018-08-03T08:55:06.785Z,1002.23
2018-08-03T08:56:13.728Z,1002.20
2018-08-03T08:57:20.868Z,1002.22
2018-08-03T08:58:27.607Z,1002.25
2018-08-03T08:59:34.551Z,1002.26
2018-08-03T09:00:41.522Z,1002.24
2018-08-03T09:01:48.428Z,1002.22
2018-08-03T09:02:55.394Z,1002.26
2018-08-03T09:04:02.318Z,1002.20
2018-08-03T09:05:09.263Z,1002.22
2018-08-03T09:06:16.216Z,1002.23
2018-08-03T09:07:23.234Z,1002.22
2018-08-03T09:08:30.115Z,1002.23
2018-08-03T09:09:38.071Z,1002.23
2018-08-03T09:10:44.022Z,1002.26
2018-08-03T09:11:50.983Z,1002.22
2018-08-03T09:12:57.937Z,1002.26
2018-08-03T09:14:05.384Z,1002.21
2018-08-03T09:15:11.862Z,1002.23
2018-08-03T09:16:18.819Z,1002.25
2018-08-03T09:17:25.792Z,1002.20
2018-08-03T09:18:32.753Z,1002.16
2018-08-03T09:19:39.716Z,1002.20
2018-08-03T09:20:46.677Z,1002.20
2018-08-03T09:21:53.655Z,1002.19
2018-08-03T09:23:00.645Z,1002.16
2018-08-03T09:24:07.588Z,1002.15
2018-08-03T09:25:14.568Z,1002.12
2018-08-03T09:26:21.537Z,1002.14
2018-08-03T09:27:28.515Z,1002.13
2018-08-03T09:28:35.488Z,1002.13
2018-08-03T09:29:42.475Z,1002.10
2018-08-03T09:30:49.505Z,1002.10
2018-08-03T09:31:56.437Z,1002.08
2018-08-03T09:33:03.492Z,1002.08
2018-08-03T09:34:10.395Z,1002.07
2018-08-03T09:35:17.392Z,1002.10
2018-08-03T09:36:24.437Z,1002.06
2018-08-03T09:37:31.376Z,1002.02
2018-08-03T09:38:38.354Z,1002.03
2018-08-03T09:39:45.345Z,1002.04
2018-08-03T09:40:53.342Z,1002.04
2018-08-03T09:41:59.326Z,1001.96
2018-08-03T09:43:06.352Z,1001.96
2018-08-03T09:44:13.323Z,1001.97
2018-08-03T09:45:20.322Z,1001.95
2018-08-03T09:46:27.315Z,1001.94
2018-08-03T09:47:34.318Z,1001.95
2018-08-03T09:48:41.319Z,1001.93
2018-08-03T09:49:48.308Z,1001.88
2018-08-03T09:50:55.303Z,1001.92
2018-08-03T09:52:02.318Z,1001.90
2018-08-03T09:53:09.328Z,1001.85
2018-08-03T09:54:16.329Z,1001.83
2018-08-03T09:55:23.430Z,1001.93
2018-08-03T09:56:30.647Z,1001.91
2018-08-03T09:57:37.355Z,1001.85
2018-08-03T09:58:44.371Z,1001.84
2018-08-03T09:59:51.379Z,1001.78
2018-08-03T10:00:58.426Z,1001.74
2018-08-03T10:02:05.430Z,1001.75
2018-08-03T10:03:12.450Z,1001.75
2018-08-03T10:04:19.462Z,1001.71
2018-08-03T10:05:26.485Z,1001.73
2018-08-03T10:06:33.498Z,1001.69
2018-08-03T10:07:40.584Z,1001.68
2018-08-03T10:08:47.550Z,1001.64
2018-08-03T10:09:54.579Z,1001.64
2018-08-03T10:11:01.607Z,1001.64
2018-08-03T10:12:08.683Z,1001.60
2018-08-03T10:13:15.684Z,1001.61
2018-08-03T10:14:22.700Z,1001.61
2018-08-03T10:15:29.753Z,1001.62
2018-08-03T10:16:36.804Z,1001.60
2018-08-03T10:17:43.842Z,1001.58
2018-08-03T10:18:50.849Z,1001.53
2018-08-03T10:19:57.880Z,1001.56
2018-08-03T10:21:04.923Z,1001.47
2018-08-03T10:22:11.952Z,1001.44
2018-08-03T10:23:19.006Z,1001.46
2018-08-03T10:24:26.043Z,1001.47
2018-08-03T10:25:33.073Z,1001.39
2018-08-03T10:26:40.111Z,1001.43
2018-08-03T10:27:47.157Z,1001.38
2018-08-03T10:28:57.657Z,1001.44
2018-08-03T10:30:01.369Z,1001.34
2018-08-03T10:31:08.276Z,1001.34
2018-08-03T10:32:15.327Z,1001.38
2018-08-03T10:33:22.829Z,1001.37
2018-08-03T10:34:29.392Z,1001.33
2018-08-03T10:35:36.651Z,1001.35
2018-08-03T10:36:43.490Z,1001.34
2018-08-03T10:37:50.566Z,1001.31
2018-08-03T10:38:57.593Z,1001.27
2018-08-03T10:40:04.624Z,1001.29
2018-08-03T10:41:11.675Z,1001.36
2018-08-03T10:42:18.731Z,1001.28
2018-08-03T10:43:25.770Z,1001.27
2018-08-03T10:44:32.836Z,1001.29
2018-08-03T10:45:39.871Z,1001.26
2018-08-03T10:46:46.944Z,1001.25
2018-08-03T10:47:54.000Z,1001.24
2018-08-03T10:49:01.032Z,1001.21
2018-08-03T10:50:08.101Z,1001.20
2018-08-03T10:51:15.209Z,1001.20
2018-08-03T10:52:22.206Z,1001.21
2018-08-03T10:53:29.277Z,1001.24
2018-08-03T10:54:36.343Z,1001.25
2018-08-03T10:55:43.396Z,1001.26
2018-08-03T10:56:50.469Z,1001.23
2018-08-03T10:57:57.539Z,1001.17
2018-08-03T10:59:04.606Z,1001.17
2018-08-03T11:00:11.673Z,1001.18
2018-08-03T11:01:18.748Z,1001.17
2018-08-03T11:02:25.808Z,1001.12
2018-08-03T11:03:32.883Z,1001.15
2018-08-03T11:04:39.953Z,1001.12
2018-08-03T11:05:47.018Z,1001.11
2018-08-03T11:06:54.169Z,1001.12
2018-08-03T11:08:01.200Z,1001.12
2018-08-03T11:09:08.256Z,1001.12
2018-08-03T11:10:15.340Z,1001.15
2018-08-03T11:11:22.404Z,1001.11
2018-08-03T11:12:29.497Z,1001.08
2018-08-03T11:13:36.657Z,1001.08
2018-08-03T11:14:43.682Z,1001.03
2018-08-03T11:15:50.787Z,1001.07
2018-08-03T11:16:57.967Z,1001.04
2018-08-03T11:18:05.194Z,1001.03
2018-08-03T11:19:12.488Z,1001.01
2018-08-03T11:20:19.881Z,1001.01
2018-08-03T11:21:27.329Z,1001.08
2018-08-03T11:22:34.886Z,1001.01
2018-08-03T11:23:42.419Z,1001.00
2018-08-03T11:24:50.039Z,1000.96
2018-08-03T11:25:57.707Z,1000.95
2018-08-03T11:27:05.430Z,1000.91
2018-08-03T11:28:13.182Z,1000.91
2018-08-03T11:29:20.982Z,1000.94
2018-08-03T11:30:28.809Z,1000.94
2018-08-03T11:31:36.668Z,1000.85
2018-08-03T11:32:44.566Z,1000.86
2018-08-03T11:33:52.545Z,1000.82
2018-08-03T11:35:00.463Z,1000.84
2018-08-03T11:36:08.457Z,1000.83
2018-08-03T11:37:16.500Z,1000.80
2018-08-03T11:38:24.558Z,1000.79
2018-08-03T11:39:32.649Z,1000.78
2018-08-03T11:40:40.741Z,1000.75
2018-08-03T11:41:49.043Z,1000.72
2018-08-03T11:42:56.992Z,1000.67
2018-08-03T11:44:05.145Z,1000.65
2018-08-03T11:45:13.316Z,1000.66
2018-08-03T11:46:21.507Z,1000.67
2018-08-03T11:47:29.719Z,1000.67
2018-08-03T11:48:37.946Z,1000.65
2018-08-03T11:49:47.183Z,1000.71
2018-08-03T11:50:54.432Z,1000.71
2018-08-03T11:52:02.717Z,1000.64
2018-08-03T11:53:10.977Z,1000.61
2018-08-03T11:54:19.208Z,1000.60
2018-08-03T11:55:27.305Z,1000.60
2018-08-03T11:56:35.300Z,1000.53
2018-08-03T11:57:43.420Z,1000.59
2018-08-03T11:58:51.203Z,1000.54
2018-08-03T11:59:59.207Z,1000.54
2018-08-03T12:01:07.274Z,1000.54
2018-08-03T12:02:15.383Z,1000.50
2018-08-03T12:03:23.536Z,1000.48
2018-08-03T12:04:31.701Z,1000.44
2018-08-03T12:05:39.875Z,1000.50
2018-08-03T12:06:48.082Z,1000.48
2018-08-03T12:07:56.332Z,1000.40
2018-08-03T12:09:04.584Z,1000.38
2018-08-03T12:10:12.853Z,1000.36
2018-08-03T12:11:21.134Z,1000.34
2018-08-03T12:12:29.502Z,1000.30
2018-08-03T12:13:37.773Z,1000.26
2018-08-03T12:14:46.122Z,1000.28
2018-08-03T12:15:54.482Z,1000.28
2018-08-03T12:17:02.868Z,1000.28
2018-08-03T12:18:11.228Z,1000.28
2018-08-03T12:19:19.620Z,1000.26
2018-08-03T12:20:28.002Z,1000.30
2018-08-03T12:21:36.394Z,1000.28
2018-08-03T12:22:44.791Z,1000.31
2018-08-03T12:23:53.316Z,1000.24
2018-08-03T12:25:01.780Z,1000.24
2018-08-03T12:26:10.034Z,1000.28
2018-08-03T12:27:18.458Z,1000.23
2018-08-03T12:28:26.891Z,1000.21
2018-08-03T12:29:35.323Z,1000.22
2018-08-03T12:30:43.753Z,1000.22
2018-08-03T12:31:52.285Z,1000.26
2018-08-03T12:33:00.632Z,1000.24
2018-08-03T12:34:09.113Z,1000.24
2018-08-03T12:35:17.557Z,1000.20
2018-08-03T12:36:26.034Z,1000.11
2018-08-03T12:37:34.513Z,1000.11
2018-08-03T12:38:42.999Z,1000.02
2018-08-03T12:39:51.497Z,1000.02
2018-08-03T12:41:00.022Z,1000.03
2018-08-03T12:42:08.518Z,999.98
2018-08-03T12:43:17.093Z,999.98
2018-08-03T12:44:26.575Z,999.98
2018-08-03T12:45:34.409Z,999.94
2018-08-03T12:46:42.640Z,999.92
2018-08-03T12:47:51.166Z,999.93
2018-08-03T12:48:59.728Z,999.95
2018-08-03T12:50:08.258Z,999.89
2018-08-03T12:51:16.810Z,999.94
2018-08-03T12:52:25.412Z,999.91
2018-08-03T12:53:33.913Z,999.89
2018-08-03T12:54:42.456Z,999.90
2018-08-03T12:55:50.977Z,999.88
2018-08-03T12:56:59.500Z,999.83
2018-08-03T12:58:08.028Z,999.85
2018-08-03T12:59:16.547Z,999.85
2018-08-03T13:00:25.047Z,999.81
2018-08-03T13:01:33.562Z,999.82
2018-08-03T13:02:42.090Z,999.82
2018-08-03T13:03:51.082Z,999.81
2018-08-03T13:04:59.084Z,999.87
2018-08-03T13:06:07.594Z,999.80
2018-08-03T13:07:16.115Z,999.76
2018-08-03T13:08:24.711Z,999.79
2018-08-03T13:09:33.095Z,999.81
2018-08-03T13:10:41.562Z,999.76
2018-08-03T13:11:50.042Z,999.74
2018-08-03T13:12:58.529Z,999.67
2018-08-03T13:14:06.999Z,999.66
2018-08-03T13:15:15.474Z,999.73
2018-08-03T13:16:23.971Z,999.71
2018-08-03T13:17:32.478Z,999.71
2018-08-03T13:18:40.980Z,999.74
2018-08-03T13:19:49.494Z,999.74
2018-08-03T13:20:58.006Z,999.74
2018-08-03T13:22:06.548Z,999.78
2018-08-03T13:23:15.082Z,999.73
2018-08-03T13:24:23.599Z,999.72
2018-08-03T13:25:32.118Z,999.72
2018-08-03T13:26:40.642Z,999.67
2018-08-03T13:27:49.051Z,999.71
2018-08-03T13:28:57.484Z,999.65
2018-08-03T13:30:05.723Z,999.62
2018-08-03T13:31:13.950Z,999.63
2018-08-03T13:32:22.290Z,999.57